Spencer, VA (24165)

4:04 PM EDT on April 21, 2015 (GMT -0400)
Blue Ridge | | Change Station
CLOSE
Current Station
Airport
Location: Martinsville,
Elevation: 942 ft
Nearby Weather Stations

Elev 942 ft 36.63 °N, 80.01 °W | Updated 9 minutes ago

Partly Cloudy
Partly Cloudy
69 °F
Feels Like 69 °F
N
10
Wind Variable Wind from WSW
Gusts 18 mph

Today
High -- | Low -- °F
--% Chance of Precip.
Yesterday
High -- | Low -- °F
Precip. -- in
6:38 AM 7:59 PM
Waxing Crescent, 12% visible
Pressure 29.83 in
Visibility 10.0 miles
Clouds Scattered Clouds 8500 ft
Dew Point 29 °F
Humidity 22%
Rainfall 0.00 in
Snow Depth Not available.
UV 6 out of 12
Pollen 11.00 out of 12
Air Quality Not available.
Flu Activity Local Activity
METAR KMTV 211955Z AUTO 25009G16KT 230V290 10SM SCT085 21/M02 A2983 RMK AO2 T02081018

More Conditions Fewer Conditions

Pressure 29.83 in
Visibility 10.0 miles
Clouds Scattered Clouds 8500 ft
Dew Point 29 °F
Humidity 22%
Rainfall 0.00 in
Snow Depth Not available.
UV 6 out of 12
Pollen 11.00 out of 12
Air Quality Not available.
Flu Activity Local Activity
METAR KMTV 211955Z AUTO 25009G16KT 230V290 10SM SCT085 21/M02 A2983 RMK AO2 T02081018

More Conditions Fewer Conditions

10-Day Weather Forecast

Almanac

Astronomy

Apr. 21, 2015 Rise Set
Actual Time
Civil Twilight
Nautical Twilight
Astronomical Twilight
Moon
Length of Visible Light
Length of Day
Tomorrow will be .
, % of the Moon is Illuminated

Today's Extremes

State Highs State Lows

Community

WunderPhotos

Upload Photos

1,815,526 photos uploaded!

WunderBlogs® & News

Nearby

Air Quality

  Air Quality AQ Index Pollutant
Not available.

Snow Depth

Station Depth Elevation

Earthquake Activity

City Distance Mag. Time & Date
Minimum magnitude displayed is 2.5.

Coastal Water Temperatures

Place Temperature

Stations

Nearby Weather Stations

Station Location Temp. Windchill Dew Point Humidity Wind Precip. Elev Updated Type